createdAt,value
2024-03-09T00:01:38.472Z,41.30
2024-03-09T00:04:05.812Z,46.42
2024-03-09T00:06:33.889Z,40.30
2024-03-09T00:09:01.023Z,40.25
2024-03-09T00:11:28.284Z,38.78
2024-03-09T00:13:56.076Z,43.33
2024-03-09T00:16:22.797Z,39.45
2024-03-09T00:18:49.595Z,38.95
2024-03-09T00:21:16.283Z,37.38
2024-03-09T00:23:43.579Z,39.97
2024-03-09T00:26:11.400Z,36.40
2024-03-09T00:28:42.200Z,40.53
2024-03-09T00:31:09.453Z,41.97
2024-03-09T00:33:39.403Z,40.05
2024-03-09T00:38:35.630Z,36.00
2024-03-09T00:41:03.029Z,37.58
2024-03-09T00:43:29.720Z,40.78
2024-03-09T00:45:56.452Z,39.97
2024-03-09T00:48:23.642Z,39.72
2024-03-09T00:50:50.396Z,36.53
2024-03-09T00:53:18.277Z,37.08
2024-03-09T00:55:45.722Z,41.42
2024-03-09T00:58:14.242Z,41.35
2024-03-09T01:00:41.180Z,43.17
2024-03-09T01:03:07.815Z,42.78
2024-03-09T01:05:34.510Z,40.78
2024-03-09T01:08:01.962Z,38.20
2024-03-09T01:10:28.681Z,39.33
2024-03-09T01:12:56.769Z,39.92
2024-03-09T01:15:23.573Z,43.35
2024-03-09T01:17:50.473Z,38.10
2024-03-09T01:20:18.366Z,38.08
2024-03-09T01:22:46.398Z,36.88
2024-03-09T01:25:14.019Z,37.97
2024-03-09T01:27:41.147Z,37.55
2024-03-09T01:30:10.885Z,36.63
2024-03-09T01:32:41.648Z,39.22
2024-03-09T01:35:10.482Z,36.03
2024-03-09T01:37:37.584Z,36.80
2024-03-09T01:40:05.835Z,38.90
2024-03-09T01:42:32.479Z,39.50
2024-03-09T01:44:59.227Z,40.28
2024-03-09T01:47:27.418Z,37.47
2024-03-09T01:49:55.166Z,39.10
2024-03-09T01:52:25.054Z,37.47
2024-03-09T01:54:55.180Z,37.55
2024-03-09T01:57:22.119Z,38.95
2024-03-09T01:59:55.906Z,39.03
2024-03-09T02:02:26.289Z,35.75
2024-03-09T02:04:53.595Z,36.83
2024-03-09T02:07:20.395Z,34.63
2024-03-09T02:09:49.511Z,34.10
2024-03-09T02:12:18.574Z,35.60
2024-03-09T02:14:46.396Z,37.80
2024-03-09T02:17:14.011Z,39.72
2024-03-09T02:19:41.835Z,37.78
2024-03-09T02:22:14.272Z,36.28
2024-03-09T02:24:42.865Z,39.15
2024-03-09T02:27:10.729Z,38.78
2024-03-09T02:29:38.494Z,42.38
2024-03-09T02:32:05.762Z,47.25
2024-03-09T02:34:33.261Z,50.40
2024-03-09T02:37:00.305Z,53.42
2024-03-09T02:39:29.627Z,52.03
2024-03-09T02:41:59.631Z,51.40
2024-03-09T02:44:29.704Z,53.15
2024-03-09T02:46:56.841Z,54.15
2024-03-09T02:49:25.779Z,57.83
2024-03-09T02:51:54.755Z,47.65
2024-03-09T02:54:21.786Z,49.25
2024-03-09T02:56:50.728Z,52.35
2024-03-09T02:59:17.675Z,46.80
2024-03-09T03:01:45.173Z,48.00
2024-03-09T03:04:13.217Z,50.97
2024-03-09T03:06:40.106Z,48.33
2024-03-09T03:09:12.847Z,46.20
2024-03-09T03:11:42.487Z,49.30
2024-03-09T03:14:10.852Z,49.00
2024-03-09T03:16:38.020Z,48.38
2024-03-09T03:19:11.063Z,45.78
2024-03-09T03:21:42.311Z,47.70
2024-03-09T03:24:10.579Z,47.10
2024-03-09T03:26:38.043Z,44.97
2024-03-09T03:29:05.059Z,45.78
2024-03-09T03:31:31.984Z,47.63
2024-03-09T03:33:59.031Z,46.55
2024-03-09T03:36:26.142Z,48.58
2024-03-09T03:38:52.907Z,46.38
2024-03-09T03:41:23.749Z,56.20
2024-03-09T03:43:51.359Z,57.17
2024-03-09T03:46:18.422Z,63.45
2024-03-09T03:48:48.437Z,65.13
2024-03-09T03:51:16.966Z,61.95
2024-03-09T03:53:45.736Z,65.70
2024-03-09T03:56:16.031Z,62.42
2024-03-09T04:01:12.602Z,49.42
2024-03-09T04:03:39.688Z,51.28
2024-03-09T04:06:07.584Z,53.85
2024-03-09T04:08:34.717Z,51.58
2024-03-09T04:11:03.493Z,58.15
2024-03-09T04:13:30.245Z,59.03
2024-03-09T04:15:57.305Z,54.08
2024-03-09T04:18:24.418Z,51.95
2024-03-09T04:20:51.353Z,53.22
2024-03-09T04:23:18.725Z,46.85
2024-03-09T04:25:57.522Z,43.80
2024-03-09T04:28:29.214Z,41.92
2024-03-09T04:30:59.907Z,47.15
2024-03-09T04:33:27.608Z,49.50
2024-03-09T04:35:54.609Z,52.60
2024-03-09T04:38:21.779Z,54.05
2024-03-09T04:40:51.059Z,57.70
2024-03-09T04:43:19.064Z,55.20
2024-03-09T04:45:47.052Z,53.63
2024-03-09T04:48:15.473Z,50.75
2024-03-09T04:50:48.539Z,49.13
2024-03-09T04:53:17.087Z,52.90
2024-03-09T04:55:52.957Z,48.67
2024-03-09T04:58:20.773Z,46.33
2024-03-09T05:00:47.811Z,48.85
2024-03-09T05:03:15.898Z,52.17
2024-03-09T05:05:44.525Z,46.95
2024-03-09T05:08:12.056Z,45.33
2024-03-09T05:10:39.011Z,47.28
2024-03-09T05:13:08.084Z,59.10
2024-03-09T05:15:35.608Z,64.82
2024-03-09T05:18:04.950Z,57.80
2024-03-09T05:20:31.851Z,53.80
2024-03-09T05:23:00.424Z,53.40
2024-03-09T05:25:28.043Z,50.70
2024-03-09T05:27:55.747Z,53.55
2024-03-09T05:30:26.896Z,57.78
2024-03-09T05:32:58.946Z,61.80
2024-03-09T05:35:30.861Z,61.38
2024-03-09T05:38:01.936Z,62.88
2024-03-09T05:40:31.200Z,63.92
2024-03-09T05:43:01.955Z,67.97
2024-03-09T05:45:29.291Z,70.72
2024-03-09T05:47:57.582Z,74.53
2024-03-09T05:50:32.331Z,72.20
2024-03-09T05:53:03.346Z,71.57
2024-03-09T05:55:30.516Z,73.45
2024-03-09T05:57:58.455Z,74.05
2024-03-09T06:00:31.359Z,74.97
2024-03-09T06:03:09.183Z,70.20
2024-03-09T06:05:36.345Z,63.63
2024-03-09T06:08:04.213Z,65.40
2024-03-09T06:10:31.459Z,63.50
2024-03-09T06:12:58.225Z,64.05
2024-03-09T06:15:26.536Z,61.67
2024-03-09T06:17:57.377Z,61.95
2024-03-09T06:20:33.281Z,64.32
2024-03-09T06:23:00.077Z,62.45
2024-03-09T06:25:27.716Z,60.85
2024-03-09T06:28:03.798Z,62.28
2024-03-09T06:30:32.505Z,61.83
2024-03-09T06:35:29.780Z,58.83
2024-03-09T06:38:02.214Z,62.47
2024-03-09T06:40:33.911Z,62.28
2024-03-09T06:43:06.660Z,53.30
2024-03-09T06:45:35.266Z,52.30
2024-03-09T06:48:02.187Z,47.38
2024-03-09T06:50:30.454Z,45.83
2024-03-09T06:52:57.428Z,45.47
2024-03-09T06:55:27.784Z,42.40
2024-03-09T06:57:55.508Z,38.47
2024-03-09T07:00:23.313Z,34.00
2024-03-09T07:02:55.000Z,36.47
2024-03-09T07:05:22.240Z,30.15
2024-03-09T07:07:49.713Z,31.25
2024-03-09T07:10:16.470Z,30.98
2024-03-09T07:12:43.352Z,28.67
2024-03-09T07:15:18.031Z,29.85
2024-03-09T07:17:46.299Z,29.25
2024-03-09T07:20:14.866Z,28.00
2024-03-09T07:22:43.254Z,26.80
2024-03-09T07:25:17.086Z,26.92
2024-03-09T07:27:44.798Z,26.88
2024-03-09T07:30:15.625Z,26.00
2024-03-09T07:32:49.798Z,22.35
2024-03-09T07:35:20.759Z,21.65
2024-03-09T07:37:56.668Z,24.20
2024-03-09T07:40:27.588Z,21.40
2024-03-09T07:42:55.029Z,20.83
2024-03-09T07:45:27.909Z,20.95
2024-03-09T07:47:55.380Z,15.70
2024-03-09T07:50:24.387Z,14.68
2024-03-09T07:52:56.878Z,15.10
2024-03-09T07:55:27.058Z,13.38
2024-03-09T07:58:13.253Z,13.88
2024-03-09T08:00:50.043Z,13.05
2024-03-09T08:03:18.328Z,13.63
2024-03-09T08:05:45.221Z,15.38
2024-03-09T08:08:13.894Z,13.90
2024-03-09T08:10:46.783Z,14.07
2024-03-09T08:13:14.861Z,15.50
2024-03-09T08:15:41.871Z,14.57
2024-03-09T08:18:09.077Z,13.55
2024-03-09T08:20:36.279Z,14.63
2024-03-09T08:23:03.102Z,15.13
2024-03-09T08:25:29.988Z,14.27
2024-03-09T08:27:56.887Z,13.57
2024-03-09T08:30:23.700Z,14.80
2024-03-09T08:33:00.773Z,13.93
2024-03-09T08:35:34.243Z,13.13
2024-03-09T08:38:01.206Z,13.48
2024-03-09T08:40:28.286Z,14.57
2024-03-09T08:42:56.087Z,14.45
2024-03-09T08:45:25.039Z,14.35
2024-03-09T08:47:53.422Z,17.02
2024-03-09T08:50:22.882Z,15.10
2024-03-09T08:52:50.984Z,16.55
2024-03-09T08:55:19.952Z,13.93
2024-03-09T08:57:53.063Z,14.73
2024-03-09T09:00:26.704Z,15.43
2024-03-09T09:02:58.372Z,15.30
2024-03-09T09:05:29.638Z,14.48
2024-03-09T09:08:00.383Z,16.33
2024-03-09T09:10:27.521Z,17.70
2024-03-09T09:12:58.640Z,16.80
2024-03-09T09:15:26.558Z,15.98
2024-03-09T09:17:57.343Z,16.98
2024-03-09T09:20:25.582Z,16.60
2024-03-09T09:22:55.552Z,17.27
2024-03-09T09:25:30.842Z,15.90
2024-03-09T09:28:01.090Z,16.92
2024-03-09T09:30:27.944Z,15.77
2024-03-09T09:32:54.725Z,15.77
2024-03-09T09:35:22.120Z,15.77
2024-03-09T09:37:49.146Z,15.50
2024-03-09T09:40:16.978Z,15.73
2024-03-09T09:42:45.002Z,19.00
2024-03-09T09:45:22.951Z,16.23
2024-03-09T09:50:20.541Z,19.48
2024-03-09T09:52:50.337Z,18.85
2024-03-09T09:55:20.777Z,22.58
2024-03-09T09:57:47.758Z,19.27
2024-03-09T10:00:15.756Z,18.40
2024-03-09T10:02:43.104Z,19.35
2024-03-09T10:05:14.400Z,20.37
2024-03-09T10:08:06.196Z,20.30
2024-03-09T10:10:36.846Z,18.40
2024-03-09T10:13:08.174Z,19.00
2024-03-09T10:15:38.085Z,19.08
2024-03-09T10:18:07.000Z,17.25
2024-03-09T10:20:36.226Z,18.17
2024-03-09T10:23:10.292Z,17.80
2024-03-09T10:25:37.599Z,17.00
2024-03-09T10:28:12.200Z,15.93
2024-03-09T10:30:39.964Z,16.48
2024-03-09T10:33:15.833Z,15.45
2024-03-09T10:35:45.744Z,15.50
2024-03-09T10:38:14.850Z,18.00
2024-03-09T10:40:43.076Z,15.80
2024-03-09T10:45:42.650Z,14.77
2024-03-09T10:48:11.397Z,18.17
2024-03-09T10:50:53.086Z,15.73
2024-03-09T10:53:28.728Z,16.48
2024-03-09T10:56:16.622Z,16.60
2024-03-09T10:58:45.908Z,15.95
2024-03-09T11:01:16.993Z,15.63
2024-03-09T11:03:50.453Z,16.65
2024-03-09T11:06:22.662Z,16.02
2024-03-09T11:08:58.135Z,16.88
2024-03-09T11:11:28.089Z,17.38
2024-03-09T11:13:58.196Z,17.17
2024-03-09T11:16:28.263Z,16.33
2024-03-09T11:18:58.653Z,16.92
2024-03-09T11:21:35.767Z,16.50
2024-03-09T11:24:12.892Z,16.88
2024-03-09T11:26:53.642Z,14.90
2024-03-09T11:29:24.586Z,15.88
2024-03-09T11:32:13.358Z,16.02
2024-03-09T11:34:40.516Z,16.77
2024-03-09T11:37:10.128Z,17.65
2024-03-09T11:39:38.024Z,14.70
2024-03-09T11:42:10.357Z,14.98
2024-03-09T11:44:41.265Z,16.25
2024-03-09T11:47:08.743Z,17.13
2024-03-09T11:49:37.180Z,15.50
2024-03-09T11:52:15.626Z,17.60
2024-03-09T11:54:45.272Z,15.93
2024-03-09T11:57:12.060Z,14.73
2024-03-09T11:59:38.690Z,15.05
2024-03-09T12:02:08.790Z,16.05
2024-03-09T12:04:36.221Z,15.98
2024-03-09T12:07:07.624Z,13.38
2024-03-09T12:09:34.865Z,11.73
2024-03-09T12:12:13.950Z,14.63
2024-03-09T12:14:42.850Z,15.38
2024-03-09T12:17:11.605Z,16.90
2024-03-09T12:19:42.126Z,17.23
2024-03-09T12:22:10.682Z,16.83
2024-03-09T12:24:37.646Z,16.00
2024-03-09T12:27:04.643Z,15.98
2024-03-09T12:29:34.364Z,16.10
2024-03-09T12:32:02.806Z,15.82
2024-03-09T12:34:30.249Z,17.37
2024-03-09T12:36:59.276Z,16.95
2024-03-09T12:39:29.031Z,16.95
2024-03-09T12:41:57.535Z,17.23
2024-03-09T12:44:24.488Z,17.35
2024-03-09T12:46:51.519Z,15.77
2024-03-09T12:49:19.752Z,16.17
2024-03-09T12:51:48.010Z,17.50
2024-03-09T12:54:14.967Z,15.73
2024-03-09T12:56:43.264Z,17.05
2024-03-09T12:59:22.381Z,16.85
2024-03-09T13:01:51.280Z,16.48
2024-03-09T13:04:19.501Z,16.95
2024-03-09T13:06:46.239Z,16.67
2024-03-09T13:09:16.729Z,16.25
2024-03-09T13:11:44.830Z,16.00
2024-03-09T13:14:11.910Z,15.95
2024-03-09T13:16:42.188Z,17.15
2024-03-09T13:19:11.709Z,18.33
2024-03-09T13:24:10.142Z,17.40
2024-03-09T13:26:38.345Z,17.63
2024-03-09T13:29:05.332Z,18.40
2024-03-09T13:31:34.419Z,17.48
2024-03-09T13:34:07.153Z,16.17
2024-03-09T13:36:33.913Z,14.73
2024-03-09T13:39:01.813Z,14.90
2024-03-09T13:41:29.158Z,16.30
2024-03-09T13:43:58.106Z,16.55
2024-03-09T13:46:25.449Z,15.63
2024-03-09T13:48:52.263Z,17.48
2024-03-09T13:51:19.123Z,16.13
2024-03-09T13:53:46.786Z,16.67
2024-03-09T13:56:21.109Z,17.58
2024-03-09T13:58:49.258Z,17.45
2024-03-09T14:01:21.193Z,18.50
2024-03-09T14:03:48.981Z,15.88
2024-03-09T14:06:17.129Z,15.93
2024-03-09T14:08:44.315Z,16.60
2024-03-09T14:11:12.765Z,16.13
2024-03-09T14:13:39.856Z,16.63
2024-03-09T14:16:09.659Z,15.57
2024-03-09T14:18:37.873Z,17.02
2024-03-09T14:21:12.557Z,17.23
2024-03-09T14:23:40.037Z,16.50
2024-03-09T14:26:13.182Z,16.55
2024-03-09T14:28:40.850Z,15.65
2024-03-09T14:31:09.989Z,15.55
2024-03-09T14:33:37.290Z,16.35
2024-03-09T14:36:08.089Z,15.05
2024-03-09T14:38:39.560Z,15.25
2024-03-09T14:41:15.275Z,15.85
2024-03-09T14:43:43.361Z,16.73
2024-03-09T14:46:12.869Z,16.42
2024-03-09T14:48:40.790Z,15.48
2024-03-09T14:51:12.338Z,15.52
2024-03-09T14:53:40.746Z,16.17
2024-03-09T14:56:11.424Z,15.43
2024-03-09T14:58:42.390Z,17.80
2024-03-09T15:01:14.038Z,15.98
2024-03-09T15:03:41.466Z,15.27
2024-03-09T15:06:11.838Z,16.33
2024-03-09T15:08:40.609Z,18.20
2024-03-09T15:11:16.115Z,19.20
2024-03-09T15:13:53.365Z,16.70
2024-03-09T15:16:25.858Z,18.70
2024-03-09T15:18:55.432Z,18.40
2024-03-09T15:21:24.287Z,16.48
2024-03-09T15:23:53.073Z,16.20
2024-03-09T15:26:29.938Z,14.65
2024-03-09T15:28:58.190Z,15.52
2024-03-09T15:31:25.385Z,16.02
2024-03-09T15:33:54.508Z,14.50
2024-03-09T15:36:21.857Z,15.48
2024-03-09T15:38:49.448Z,15.52
2024-03-09T15:41:17.152Z,15.63
2024-03-09T15:43:45.073Z,17.33
2024-03-09T15:46:12.898Z,16.67
2024-03-09T15:48:39.655Z,17.95
2024-03-09T15:51:06.682Z,17.98
2024-03-09T15:53:38.997Z,20.48
2024-03-09T15:56:08.677Z,19.88
2024-03-09T15:58:41.836Z,39.63
2024-03-09T16:01:10.233Z,42.08
2024-03-09T16:03:37.844Z,25.10
2024-03-09T16:06:05.288Z,26.35
2024-03-09T16:08:32.198Z,19.45
2024-03-09T16:10:59.314Z,19.45
2024-03-09T16:13:26.439Z,20.00
2024-03-09T16:15:53.363Z,22.42
2024-03-09T16:18:20.118Z,23.55
2024-03-09T16:20:49.038Z,26.65
2024-03-09T16:23:20.198Z,28.35
2024-03-09T16:25:50.146Z,29.00
2024-03-09T16:28:18.316Z,27.75
2024-03-09T16:30:46.132Z,30.30
2024-03-09T16:33:14.500Z,28.63
2024-03-09T16:35:43.457Z,28.88
2024-03-09T16:38:10.273Z,27.27
2024-03-09T16:40:39.946Z,25.05
2024-03-09T16:43:09.191Z,24.27
2024-03-09T16:45:37.272Z,24.42
2024-03-09T16:48:07.725Z,23.13
2024-03-09T16:50:35.162Z,23.20
2024-03-09T16:53:04.116Z,24.67
2024-03-09T16:55:38.371Z,27.08
2024-03-09T16:58:05.795Z,25.48
2024-03-09T17:00:37.476Z,23.85
2024-03-09T17:03:12.015Z,25.05
2024-03-09T17:05:40.576Z,27.50
2024-03-09T17:08:09.539Z,34.50
2024-03-09T17:10:38.237Z,38.85
2024-03-09T17:13:06.269Z,46.55
2024-03-09T17:15:35.645Z,43.78
2024-03-09T17:18:02.670Z,44.33
2024-03-09T17:20:31.246Z,45.40
2024-03-09T17:23:03.707Z,50.13
2024-03-09T17:25:35.480Z,53.55
2024-03-09T17:28:07.774Z,45.63
2024-03-09T17:30:36.722Z,44.90
2024-03-09T17:33:07.876Z,43.17
2024-03-09T17:35:36.240Z,45.67
2024-03-09T17:38:03.988Z,47.28
2024-03-09T17:40:32.320Z,41.63
2024-03-09T17:42:59.753Z,53.72
2024-03-09T17:45:29.882Z,47.85
2024-03-09T17:47:57.281Z,54.92
2024-03-09T17:50:28.309Z,57.42
2024-03-09T17:53:00.040Z,57.08
2024-03-09T17:55:30.692Z,51.08
2024-03-09T17:58:08.930Z,43.67
2024-03-09T18:00:37.213Z,51.17
2024-03-09T18:03:04.765Z,51.45
2024-03-09T18:05:35.620Z,54.65
2024-03-09T18:08:10.967Z,51.70
2024-03-09T18:10:43.394Z,40.35
2024-03-09T18:13:12.409Z,36.67
2024-03-09T18:15:41.152Z,34.60
2024-03-09T18:18:12.192Z,29.95
2024-03-09T18:20:42.515Z,29.60
2024-03-09T18:23:10.379Z,28.52
2024-03-09T18:25:37.151Z,31.48
2024-03-09T18:28:04.420Z,31.80
2024-03-09T18:30:32.124Z,29.92
2024-03-09T18:32:59.304Z,32.88
2024-03-09T18:35:26.410Z,34.35
2024-03-09T18:38:01.028Z,34.78
2024-03-09T18:40:29.458Z,35.53
2024-03-09T18:42:58.205Z,34.05
2024-03-09T18:45:25.318Z,34.15
2024-03-09T18:47:55.589Z,37.20
2024-03-09T18:50:26.282Z,32.15
2024-03-09T18:52:54.956Z,28.90
2024-03-09T18:55:21.801Z,31.92
2024-03-09T18:57:48.932Z,30.25
2024-03-09T19:00:19.374Z,28.10
2024-03-09T19:02:48.304Z,28.30
2024-03-09T19:05:19.456Z,28.92
2024-03-09T19:07:47.441Z,27.67
2024-03-09T19:10:14.766Z,29.23
2024-03-09T19:12:41.623Z,31.77
2024-03-09T19:15:14.408Z,33.38
2024-03-09T19:17:52.182Z,31.63
2024-03-09T19:20:28.166Z,32.83
2024-03-09T19:23:01.080Z,33.67
2024-03-09T19:25:28.267Z,35.75
2024-03-09T19:27:57.209Z,37.05
2024-03-09T19:30:27.495Z,38.42
2024-03-09T19:32:57.482Z,36.45
2024-03-09T19:35:27.000Z,33.88
2024-03-09T19:40:27.868Z,30.45
2024-03-09T19:42:55.677Z,41.53
2024-03-09T19:45:24.928Z,48.63
2024-03-09T19:47:52.904Z,45.15
2024-03-09T19:50:23.317Z,44.08
2024-03-09T19:52:51.344Z,43.88
2024-03-09T19:55:21.041Z,37.47
2024-03-09T19:57:49.332Z,37.83
2024-03-09T20:00:24.888Z,34.05
2024-03-09T20:02:53.545Z,35.05
2024-03-09T20:05:24.801Z,33.28
2024-03-09T20:08:16.806Z,32.25
2024-03-09T20:10:44.454Z,31.60
2024-03-09T20:13:11.780Z,29.95
2024-03-09T20:15:38.751Z,29.70
2024-03-09T20:18:06.012Z,27.67
2024-03-09T20:20:37.438Z,27.92
2024-03-09T20:23:06.437Z,31.92
2024-03-09T20:25:33.506Z,39.33
2024-03-09T20:28:01.177Z,37.30
2024-03-09T20:30:29.197Z,36.88
2024-03-09T20:32:56.067Z,39.20
2024-03-09T20:35:23.012Z,36.28
2024-03-09T20:37:50.049Z,40.65
2024-03-09T20:40:18.118Z,40.25
2024-03-09T20:42:47.305Z,44.25
2024-03-09T20:45:16.297Z,46.58
2024-03-09T20:47:43.628Z,46.35
2024-03-09T20:50:17.377Z,52.05
2024-03-09T20:52:48.973Z,55.65
2024-03-09T20:55:15.809Z,60.28
2024-03-09T20:57:42.697Z,52.53
2024-03-09T21:00:19.287Z,47.55
2024-03-09T21:02:46.612Z,45.38
2024-03-09T21:05:13.885Z,47.58
2024-03-09T21:07:42.475Z,51.95
2024-03-09T21:10:10.590Z,54.80
2024-03-09T21:12:37.938Z,52.45
2024-03-09T21:15:05.710Z,52.80
2024-03-09T21:17:35.667Z,50.88
2024-03-09T21:20:05.751Z,56.05
2024-03-09T21:22:32.733Z,54.30
2024-03-09T21:24:59.605Z,48.25
2024-03-09T21:27:26.427Z,49.63
2024-03-09T21:29:54.312Z,47.45
2024-03-09T21:32:20.992Z,50.67
2024-03-09T21:34:47.819Z,48.17
2024-03-09T21:37:14.588Z,49.72
2024-03-09T21:39:41.344Z,46.60
2024-03-09T21:42:15.433Z,43.15
2024-03-09T21:44:42.468Z,36.72
2024-03-09T21:47:10.285Z,33.50
2024-03-09T21:49:37.225Z,32.42
2024-03-09T21:52:04.407Z,35.22
2024-03-09T21:54:31.282Z,33.13
2024-03-09T21:56:57.906Z,29.85
2024-03-09T21:59:26.570Z,32.13
2024-03-09T22:01:53.497Z,34.65
2024-03-09T22:04:20.354Z,33.42
2024-03-09T22:06:47.489Z,32.15
2024-03-09T22:09:14.560Z,30.13
2024-03-09T22:11:41.359Z,30.25
2024-03-09T22:14:08.237Z,29.85
2024-03-09T22:16:34.975Z,25.15
2024-03-09T22:19:02.329Z,27.63
2024-03-09T22:21:29.082Z,29.40
2024-03-09T22:23:55.793Z,27.58
2024-03-09T22:26:22.741Z,30.40
2024-03-09T22:28:51.338Z,28.63
2024-03-09T22:31:18.097Z,28.58
2024-03-09T22:33:44.949Z,27.45
2024-03-09T22:36:11.708Z,28.80
2024-03-09T22:38:38.713Z,29.52
2024-03-09T22:41:05.557Z,28.10
2024-03-09T22:43:32.281Z,27.38
2024-03-09T22:45:58.961Z,29.60
2024-03-09T22:48:31.501Z,32.25
2024-03-09T22:50:59.055Z,32.60
2024-03-09T22:53:26.107Z,34.88
2024-03-09T22:55:53.812Z,33.50
2024-03-09T22:58:20.551Z,37.35
2024-03-09T23:01:06.833Z,34.88
2024-03-09T23:03:33.856Z,34.03
2024-03-09T23:06:00.662Z,31.02
2024-03-09T23:08:28.798Z,29.10
2024-03-09T23:10:56.080Z,30.30
2024-03-09T23:13:23.272Z,27.17
2024-03-09T23:15:50.099Z,26.40
2024-03-09T23:18:19.016Z,29.35
2024-03-09T23:20:46.052Z,26.02
2024-03-09T23:23:13.528Z,26.98
2024-03-09T23:25:40.373Z,22.83
2024-03-09T23:28:10.419Z,27.13
2024-03-09T23:30:38.026Z,25.38
2024-03-09T23:33:06.086Z,24.42
2024-03-09T23:35:33.320Z,25.17
2024-03-09T23:38:00.049Z,30.05
2024-03-09T23:40:26.974Z,30.67
2024-03-09T23:42:56.214Z,26.73
2024-03-09T23:45:23.419Z,26.90
2024-03-09T23:47:51.549Z,26.35
2024-03-09T23:50:21.265Z,29.25
2024-03-09T23:52:48.967Z,28.10
2024-03-09T23:55:16.243Z,28.70
2024-03-09T23:57:43.178Z,24.60
